Time;durP1;ratioP1;P1;durP2;ratioP2;P2;SDS_P1;SDS_P2;PMS_P1;PMS_P2;Temp;Humidity;BMP_temperature;BMP_pressure;BME280_temperature;BME280_humidity;BME280_pressure;Samples;Min_cycle;Max_cycle;Signal;HPM_P1;HPM_P2
2023/05/09 00:01:42;;;;;;;;;;;;;;;15.02;93.53;101703.16;5022727;28;1185;-73
2023/05/09 00:04:07;;;;;;;;;;;;;;;15.00;93.85;101689.41;5022506;28;1714;-75
2023/05/09 00:06:33;;;;;;;;;;;;;;;15.00;93.80;101695.44;5016520;28;1319;-74
2023/05/09 00:08:58;;;;;;;;;;;;;;;14.99;93.90;101692.97;5026661;28;1039;-72
2023/05/09 00:11:23;;;;;;;;;;;;;;;14.98;93.80;101691.34;5015389;28;1247;-73
2023/05/09 00:13:49;;;;;;;;;;;;;;;14.97;93.87;101689.69;5031551;28;1092;-73
2023/05/09 00:16:15;;;;;;;;;;;;;;;14.98;93.63;101696.56;5022437;28;1961;-74
2023/05/09 00:18:41;;;;;;;;;;;;;;;14.94;93.80;101695.97;5025643;28;1162;-74
2023/05/09 00:21:06;;;;;;;;;;;;;;;14.92;93.93;101686.63;5038730;28;1218;-74
2023/05/09 00:23:31;;;;;;;;;;;;;;;14.92;93.79;101681.41;5018051;28;1101;-74
2023/05/09 00:25:57;;;;;;;;;;;;;;;14.91;94.19;101684.97;5028766;28;1185;-73
2023/05/09 00:28:22;;;;;;;;;;;;;;;14.90;94.37;101683.31;5028454;28;1187;-73
2023/05/09 00:30:49;;;;;;;;;;;;;;;14.87;94.39;101682.63;5025205;28;1117;-73
2023/05/09 00:33:15;;;;;;;;;;;;;;;14.85;94.14;101681.94;5016721;28;940;-75
2023/05/09 00:35:40;;;;;;;;;;;;;;;14.85;94.12;101671.50;5026819;28;1975;-73
2023/05/09 00:38:05;;;;;;;;;;;;;;;14.83;94.03;101668.16;5024422;28;1330;-72
2023/05/09 00:40:30;;;;;;;;;;;;;;;14.82;94.36;101660.47;5025023;28;1228;-74
2023/05/09 00:42:57;;;;;;;;;;;;;;;14.81;94.59;101664.06;5026715;28;1286;-72
2023/05/09 00:45:23;;;;;;;;;;;;;;;14.79;94.21;101661.56;5025824;28;1456;-76
2023/05/09 00:47:48;;;;;;;;;;;;;;;14.79;94.29;101661.56;5025156;28;1239;-74
2023/05/09 00:50:13;;;;;;;;;;;;;;;14.76;94.38;101661.84;5026627;28;1051;-72
2023/05/09 00:52:39;;;;;;;;;;;;;;;14.76;94.32;101661.00;5025681;28;1331;-72
2023/05/09 00:55:07;;;;;;;;;;;;;;;14.73;94.40;101656.03;5025992;28;1977;-73
2023/05/09 00:57:32;;;;;;;;;;;;;;;14.73;94.58;101651.63;5020717;28;1361;-73
2023/05/09 00:59:57;;;;;;;;;;;;;;;14.71;94.70;101658.78;5021570;28;1375;-73
2023/05/09 01:02:22;;;;;;;;;;;;;;;14.71;94.77;101658.78;5021820;28;1558;-73
2023/05/09 01:04:48;;;;;;;;;;;;;;;14.67;94.94;101656.56;5020378;28;1461;-74
2023/05/09 01:07:18;;;;;;;;;;;;;;;14.65;95.17;101651.47;5023576;28;1276;-72
2023/05/09 01:09:46;;;;;;;;;;;;;;;14.66;95.30;101645.28;5017269;28;1081;-71
2023/05/09 01:12:24;;;;;;;;;;;;;;;14.66;95.20;101634.84;5019681;28;1443;-72
2023/05/09 01:15:10;;;;;;;;;;;;;;;14.69;95.39;101642.44;5022001;28;1973;-72
2023/05/09 01:17:48;;;;;;;;;;;;;;;14.69;95.29;101645.03;5027219;28;1142;-73
2023/05/09 01:20:13;;;;;;;;;;;;;;;14.67;95.63;101640.91;5025105;28;1295;-73
2023/05/09 01:22:42;;;;;;;;;;;;;;;14.68;95.41;101635.56;5021477;28;1309;-72
2023/05/09 01:25:31;;;;;;;;;;;;;;;14.67;95.44;101626.06;5020506;28;1607;-73
2023/05/09 01:27:59;;;;;;;;;;;;;;;14.66;95.45;101619.19;5021927;28;1140;-72
2023/05/09 01:30:25;;;;;;;;;;;;;;;14.68;95.48;101611.22;5044124;28;1182;-71
2023/05/09 01:32:52;;;;;;;;;;;;;;;14.66;95.42;101608.75;5019226;28;1247;-72
2023/05/09 01:35:20;;;;;;;;;;;;;;;14.64;95.31;101600.22;5017923;28;1969;-74
2023/05/09 01:37:48;;;;;;;;;;;;;;;14.65;95.22;101596.66;5022007;28;1380;-73
2023/05/09 01:40:14;;;;;;;;;;;;;;;14.64;94.85;101595.00;5025173;28;1067;-71
2023/05/09 01:42:44;;;;;;;;;;;;;;;14.65;95.31;101601.88;5020329;28;1035;-73
2023/05/09 01:45:11;;;;;;;;;;;;;;;14.65;95.05;101601.88;5027695;28;1045;-72
2023/05/09 01:47:37;;;;;;;;;;;;;;;14.59;94.98;101597.19;5017404;28;1053;-75
2023/05/09 01:50:03;;;;;;;;;;;;;;;14.60;94.82;101593.59;5018781;28;1047;-72
2023/05/09 01:52:29;;;;;;;;;;;;;;;14.60;94.67;101580.56;5014261;28;1276;-73
2023/05/09 01:54:55;;;;;;;;;;;;;;;14.61;94.84;101579.59;5020787;28;1957;-74
2023/05/09 01:57:21;;;;;;;;;;;;;;;14.58;94.29;101570.25;5027045;28;1256;-72
2023/05/09 01:59:47;;;;;;;;;;;;;;;14.59;94.26;101576.28;5017415;28;1209;-72
2023/05/09 02:02:13;;;;;;;;;;;;;;;14.57;94.69;101578.22;5022629;28;1308;-73
2023/05/09 02:04:40;;;;;;;;;;;;;;;14.54;94.37;101575.88;5024538;28;1205;-76
2023/05/09 02:07:06;;;;;;;;;;;;;;;14.51;94.55;101573.53;5018439;28;1439;-73
2023/05/09 02:09:32;;;;;;;;;;;;;;;14.51;94.51;101565.69;5011920;28;1450;-72
2023/05/09 02:11:57;;;;;;;;;;;;;;;14.50;94.24;101567.47;5022831;28;1509;-75
2023/05/09 02:14:22;;;;;;;;;;;;;;;14.49;94.25;101575.44;5019627;28;1177;-72
2023/05/09 02:16:47;;;;;;;;;;;;;;;14.47;94.17;101582.56;5014370;28;1903;-72
2023/05/09 02:19:13;;;;;;;;;;;;;;;14.48;94.32;101569.38;5014300;28;1988;-72
2023/05/09 02:21:38;;;;;;;;;;;;;;;14.48;94.13;101563.34;5015272;28;1265;-75
2023/05/09 02:24:03;;;;;;;;;;;;;;;14.49;94.11;101565.00;5022260;28;1229;-72
2023/05/09 02:26:29;;;;;;;;;;;;;;;14.50;94.03;101566.63;5019071;28;1216;-72
2023/05/09 02:28:55;;;;;;;;;;;;;;;14.50;94.27;101561.41;5016482;28;1197;-72
2023/05/09 02:31:22;;;;;;;;;;;;;;;14.50;94.04;101561.41;5016609;28;1479;-73
2023/05/09 02:33:48;;;;;;;;;;;;;;;14.49;94.02;101565.00;5023651;28;1371;-75
2023/05/09 02:36:15;;;;;;;;;;;;;;;14.48;93.97;101568.56;5018648;28;1906;-73
2023/05/09 02:38:41;;;;;;;;;;;;;;;14.45;93.79;101564.41;5037949;28;1337;-74
2023/05/09 02:41:06;;;;;;;;;;;;;;;14.44;94.19;101562.75;5018352;28;1015;-71
2023/05/09 02:43:31;;;;;;;;;;;;;;;14.44;93.76;101567.13;5017394;28;1282;-73
2023/05/09 02:45:57;;;;;;;;;;;;;;;14.43;93.95;101565.50;5024534;28;1329;-73
2023/05/09 02:48:22;;;;;;;;;;;;;;;14.43;94.01;101560.28;5020142;28;1229;-73
2023/05/09 02:50:47;;;;;;;;;;;;;;;14.43;94.26;101568.09;5016218;28;1272;-74
2023/05/09 02:53:12;;;;;;;;;;;;;;;14.42;94.13;101562.06;5019484;28;1013;-73
2023/05/09 02:55:37;;;;;;;;;;;;;;;14.41;94.26;101562.19;5023799;28;1957;-73
2023/05/09 02:58:03;;;;;;;;;;;;;;;14.40;94.36;101568.38;5024099;28;1299;-72
2023/05/09 03:00:28;;;;;;;;;;;;;;;14.35;94.42;101559.16;5014070;28;1185;-72
2023/05/09 03:02:53;;;;;;;;;;;;;;;14.34;94.47;101556.69;5023696;28;1313;-73
2023/05/09 03:05:18;;;;;;;;;;;;;;;14.33;94.71;101547.19;5018339;28;1369;-72
2023/05/09 03:07:44;;;;;;;;;;;;;;;14.32;94.42;101551.56;5033358;28;1425;-75
2023/05/09 03:10:13;;;;;;;;;;;;;;;14.32;94.80;101543.75;5016216;28;1242;-73
2023/05/09 03:12:38;;;;;;;;;;;;;;;14.32;94.48;101543.75;5024620;28;1128;-74
2023/05/09 03:15:05;;;;;;;;;;;;;;;14.33;94.72;101534.94;5016941;28;1906;-73
2023/05/09 03:17:30;;;;;;;;;;;;;;;14.30;94.60;101530.00;5015859;28;1153;-74
2023/05/09 03:19:55;;;;;;;;;;;;;;;14.26;94.62;101523.41;5017723;28;1202;-72
2023/05/09 03:22:20;;;;;;;;;;;;;;;14.26;94.74;101531.22;5021970;28;1208;-74
2023/05/09 03:24:46;;;;;;;;;;;;;;;14.24;94.77;101527.94;5013290;28;1273;-72
2023/05/09 03:27:11;;;;;;;;;;;;;;;14.23;94.88;101518.47;5020467;28;1390;-74
2023/05/09 03:29:36;;;;;;;;;;;;;;;14.21;94.87;101515.13;5016726;28;1158;-72
2023/05/09 03:32:01;;;;;;;;;;;;;;;14.20;94.92;101513.50;5032357;28;1305;-71
2023/05/09 03:34:26;;;;;;;;;;;;;;;14.18;94.74;101518.03;5015449;28;1068;-72
2023/05/09 03:36:52;;;;;;;;;;;;;;;14.16;94.79;101517.31;5023059;28;1905;-72
2023/05/09 03:39:17;;;;;;;;;;;;;;;14.16;94.95;101519.91;5024294;28;1128;-74
2023/05/09 03:41:43;;;;;;;;;;;;;;;14.16;95.04;101514.69;5028943;28;1140;-76
2023/05/09 03:44:08;;;;;;;;;;;;;;;14.15;95.05;101500.00;5028403;28;1338;-72
2023/05/09 03:46:33;;;;;;;;;;;;;;;14.13;95.20;101491.50;5026238;28;1168;-72
2023/05/09 03:48:58;;;;;;;;;;;;;;;14.13;95.04;101496.72;5030455;28;1022;-72
2023/05/09 03:51:24;;;;;;;;;;;;;;;14.08;95.26;101493.69;5024541;28;1155;-75
2023/05/09 03:53:50;;;;;;;;;;;;;;;14.08;95.19;101498.91;5030130;28;1306;-73
2023/05/09 03:56:15;;;;;;;;;;;;;;;14.07;95.25;101497.25;5028262;28;1922;-71
2023/05/09 03:58:40;;;;;;;;;;;;;;;14.06;94.99;101498.22;5023520;28;1216;-76
2023/05/09 04:01:05;;;;;;;;;;;;;;;14.04;95.24;101500.09;5022942;28;1250;-74
2023/05/09 04:03:31;;;;;;;;;;;;;;;14.05;95.17;101499.16;5029107;28;1193;-72
2023/05/09 04:05:56;;;;;;;;;;;;;;;14.03;95.22;101480.19;5025016;28;1322;-73
2023/05/09 04:08:21;;;;;;;;;;;;;;;13.99;95.37;101484.88;5028228;28;1253;-71
2023/05/09 04:10:48;;;;;;;;;;;;;;;13.98;95.40;101480.59;5029529;28;1187;-74
2023/05/09 04:13:13;;;;;;;;;;;;;;;13.94;95.38;101481.00;5038976;28;1279;-74
2023/05/09 04:15:38;;;;;;;;;;;;;;;13.91;95.47;101486.47;5026280;28;1965;-74
2023/05/09 04:18:03;;;;;;;;;;;;;;;13.87;95.65;101474.63;5024310;28;1697;-72
2023/05/09 04:20:30;;;;;;;;;;;;;;;13.81;96.01;101471.59;5018798;28;1268;-71
2023/05/09 04:22:55;;;;;;;;;;;;;;;13.83;96.15;101474.09;5022429;28;1276;-72
2023/05/09 04:25:21;;;;;;;;;;;;;;;13.84;96.07;101474.91;5024056;28;1188;-72
2023/05/09 04:27:46;;;;;;;;;;;;;;;13.81;96.21;101471.59;5021458;28;1194;-73
2023/05/09 04:30:11;;;;;;;;;;;;;;;13.80;96.34;101469.94;5025179;28;1202;-73
2023/05/09 04:32:37;;;;;;;;;;;;;;;13.80;96.24;101464.72;5026847;28;1265;-72
2023/05/09 04:35:03;;;;;;;;;;;;;;;13.80;96.43;101469.94;5039294;28;1898;-72
2023/05/09 04:37:29;;;;;;;;;;;;;;;13.77;96.44;101459.78;5022309;28;1212;-73
2023/05/09 04:39:54;;;;;;;;;;;;;;;13.77;96.66;101459.78;5029184;28;1535;-72
2023/05/09 04:42:19;;;;;;;;;;;;;;;13.74;96.63;101459.22;5026027;28;1088;-71
2023/05/09 04:44:45;;;;;;;;;;;;;;;13.72;96.71;101466.34;5021974;28;1217;-73
2023/05/09 04:47:10;;;;;;;;;;;;;;;13.72;96.89;101461.97;5031476;28;1205;-73
2023/05/09 04:49:35;;;;;;;;;;;;;;;13.71;97.08;101455.09;5026894;28;1960;-72
2023/05/09 04:52:01;;;;;;;;;;;;;;;13.70;97.30;101463.84;5023995;28;1521;-73
2023/05/09 04:54:26;;;;;;;;;;;;;;;13.70;97.26;101460.41;5022402;28;1204;-72
2023/05/09 04:56:51;;;;;;;;;;;;;;;13.70;97.30;101450.81;5021024;28;1918;-75
2023/05/09 04:59:16;;;;;;;;;;;;;;;13.71;97.39;101442.06;5021110;28;1242;-73
2023/05/09 05:01:42;;;;;;;;;;;;;;;13.69;97.49;101451.78;5041194;28;2235;-73
2023/05/09 05:04:07;;;;;;;;;;;;;;;13.69;97.58;101446.56;5026764;28;1077;-72
2023/05/09 05:06:33;;;;;;;;;;;;;;;13.70;97.53;101448.22;5020983;28;1244;-73
2023/05/09 05:08:58;;;;;;;;;;;;;;;13.71;98.26;101439.47;5020964;28;1217;-72
2023/05/09 05:11:23;;;;;;;;;;;;;;;13.70;97.90;101432.56;5023945;28;1096;-73
2023/05/09 05:13:48;;;;;;;;;;;;;;;13.70;97.79;101432.56;5025646;28;1052;-72
2023/05/09 05:16:13;;;;;;;;;;;;;;;13.72;97.80;101430.69;5021468;28;1973;-73
2023/05/09 05:18:39;;;;;;;;;;;;;;;13.73;98.00;101421.06;5020241;28;1518;-72
2023/05/09 05:21:04;;;;;;;;;;;;;;;13.75;98.00;101419.16;5025872;28;1271;-74
2023/05/09 05:23:29;;;;;;;;;;;;;;;13.75;98.08;101414.75;5018576;28;1269;-73
2023/05/09 05:25:54;;;;;;;;;;;;;;;13.77;98.03;101407.66;5019941;28;1123;-72
2023/05/09 05:28:20;;;;;;;;;;;;;;;13.80;97.94;101409.16;5028909;28;1135;-72
2023/05/09 05:30:45;;;;;;;;;;;;;;;13.78;98.04;101404.09;5027682;28;1342;-73
2023/05/09 05:33:10;;;;;;;;;;;;;;;13.80;97.99;101396.94;5019475;28;1136;-77
2023/05/09 05:35:35;;;;;;;;;;;;;;;13.81;97.96;101400.38;5021219;28;1910;-77
2023/05/09 05:38:00;;;;;;;;;;;;;;;13.81;98.25;101397.75;5033154;28;1195;-77
2023/05/09 05:40:26;;;;;;;;;;;;;;;13.82;97.97;101394.22;5021836;28;1102;-77
2023/05/09 05:42:51;;;;;;;;;;;;;;;13.84;98.14;101388.88;5025901;28;1251;-76
2023/05/09 05:45:16;;;;;;;;;;;;;;;13.87;98.22;101391.19;5015317;28;1290;-77
2023/05/09 05:47:41;;;;;;;;;;;;;;;13.89;98.16;101384.09;5023179;28;1193;-77
2023/05/09 05:50:10;;;;;;;;;;;;;;;13.90;98.00;101377.91;5023568;28;1053;-76
2023/05/09 05:52:35;;;;;;;;;;;;;;;13.94;97.85;101381.91;5021775;28;1086;-76
2023/05/09 05:55:00;;;;;;;;;;;;;;;13.97;97.95;101381.63;5021960;28;1953;-77
2023/05/09 05:57:25;;;;;;;;;;;;;;;14.01;98.14;101383.00;5014393;28;1153;-77
2023/05/09 05:59:51;;;;;;;;;;;;;;;14.02;97.85;101384.66;5013767;28;1133;-77
2023/05/09 06:02:16;;;;;;;;;;;;;;;14.05;98.00;101379.19;5021966;28;1569;-77
2023/05/09 06:04:42;;;;;;;;;;;;;;;14.08;97.91;101374.50;5018462;28;1229;-77
2023/05/09 06:07:07;;;;;;;;;;;;;;;14.11;97.83;101368.22;5024518;28;1220;-77
2023/05/09 06:09:32;;;;;;;;;;;;;;;14.13;97.67;101361.06;5019855;28;1214;-77
2023/05/09 06:11:57;;;;;;;;;;;;;;;14.16;97.96;101366.00;5019696;28;1332;-77
2023/05/09 06:14:23;;;;;;;;;;;;;;;14.19;97.66;101364.91;5026645;28;1389;-77
2023/05/09 06:16:48;;;;;;;;;;;;;;;14.22;97.57;101359.41;5025656;28;1902;-77
2023/05/09 06:19:13;;;;;;;;;;;;;;;14.26;97.71;101355.59;5019759;28;1233;-77
2023/05/09 06:21:38;;;;;;;;;;;;;;;14.31;97.53;101358.63;5017005;28;1245;-77
2023/05/09 06:24:04;;;;;;;;;;;;;;;14.34;97.25;101353.97;5024481;28;1066;-77
2023/05/09 06:26:29;;;;;;;;;;;;;;;14.38;97.25;101348.44;5021654;28;1241;-78
2023/05/09 06:28:55;;;;;;;;;;;;;;;14.42;97.04;101344.63;5021952;28;1250;-77
2023/05/09 06:31:20;;;;;;;;;;;;;;;14.46;96.93;101346.00;5013096;28;1201;-77
2023/05/09 06:33:45;;;;;;;;;;;;;;;14.49;97.10;101335.28;5020006;28;1231;-77
2023/05/09 06:36:10;;;;;;;;;;;;;;;14.51;96.85;101334.22;5014318;28;1906;-77
2023/05/09 06:38:36;;;;;;;;;;;;;;;14.53;96.97;101331.47;5014634;28;1186;-77
2023/05/09 06:41:01;;;;;;;;;;;;;;;14.54;96.55;101336.53;5021359;28;1213;-77
2023/05/09 06:43:26;;;;;;;;;;;;;;;14.56;96.45;101336.38;5019896;28;1297;-77
2023/05/09 06:45:51;;;;;;;;;;;;;;;14.56;96.04;101331.16;5022890;28;1199;-77
2023/05/09 06:48:17;;;;;;;;;;;;;;;14.56;96.07;101329.38;5020217;28;1386;-77
2023/05/09 06:50:42;;;;;;;;;;;;;;;14.59;96.13;101325.69;5014158;28;1281;-77
2023/05/09 06:53:07;;;;;;;;;;;;;;;14.58;96.05;101324.03;5023120;28;1585;-77
2023/05/09 06:55:33;;;;;;;;;;;;;;;14.60;96.18;101322.91;5015040;28;1890;-77
2023/05/09 06:57:58;;;;;;;;;;;;;;;14.63;95.67;101321.84;5016221;28;1245;-77
2023/05/09 07:00:23;;;;;;;;;;;;;;;14.64;95.63;101315.66;5010673;28;1290;-77
2023/05/09 07:02:48;;;;;;;;;;;;;;;14.66;95.53;101316.31;5016925;28;1539;-77
2023/05/09 07:05:14;;;;;;;;;;;;;;;14.67;95.50;101307.53;5025114;28;1299;-77
2023/05/09 07:07:40;;;;;;;;;;;;;;;14.71;95.57;101310.69;5015355;28;1201;-77
2023/05/09 07:10:05;;;;;;;;;;;;;;;14.74;95.55;101313.84;5018191;28;1114;-77
2023/05/09 07:12:31;;;;;;;;;;;;;;;14.77;95.39;101307.50;5021668;28;1345;-77
2023/05/09 07:14:56;;;;;;;;;;;;;;;14.79;95.48;101301.16;5023940;28;1384;-77
2023/05/09 07:17:21;;;;;;;;;;;;;;;14.84;95.34;101304.19;5023384;28;1906;-77
2023/05/09 07:19:47;;;;;;;;;;;;;;;14.85;95.41;101297.16;5031150;28;1204;-77
2023/05/09 07:22:12;;;;;;;;;;;;;;;14.87;95.58;101288.25;5022586;28;1309;-77
2023/05/09 07:24:37;;;;;;;;;;;;;;;14.92;95.09;101294.84;5018974;28;1157;-77
2023/05/09 07:27:02;;;;;;;;;;;;;;;14.97;95.07;101297.84;5023469;28;1077;-77
2023/05/09 07:29:28;;;;;;;;;;;;;;;14.99;95.05;101291.50;5018587;28;1170;-77
2023/05/09 07:31:53;;;;;;;;;;;;;;;15.02;95.07;101285.16;5014386;28;1006;-77
2023/05/09 07:34:19;;;;;;;;;;;;;;;15.04;94.57;101283.25;5020287;28;1143;-77
2023/05/09 07:36:44;;;;;;;;;;;;;;;15.06;94.69;101276.09;5018094;28;1918;-77
2023/05/09 07:39:09;;;;;;;;;;;;;;;15.09;94.31;101281.03;5016824;28;1081;-78
2023/05/09 07:41:35;;;;;;;;;;;;;;;15.09;94.17;101275.81;5026199;28;1059;-77
2023/05/09 07:44:00;;;;;;;;;;;;;;;15.10;94.12;101280.06;5023919;28;1068;-77
2023/05/09 07:46:25;;;;;;;;;;;;;;;15.10;93.73;101282.69;5015185;28;1318;-77
2023/05/09 07:48:50;;;;;;;;;;;;;;;15.10;94.30;101277.47;5023865;28;1286;-77
2023/05/09 07:51:16;;;;;;;;;;;;;;;15.10;93.92;101273.06;5039031;28;1195;-77
2023/05/09 07:53:41;;;;;;;;;;;;;;;15.12;93.77;101275.50;5020897;28;1304;-77
2023/05/09 07:56:06;;;;;;;;;;;;;;;15.12;93.80;101272.91;5015240;28;1973;-77
2023/05/09 07:58:32;;;;;;;;;;;;;;;15.12;94.02;101271.09;5008188;28;1174;-77
2023/05/09 08:00:57;;;;;;;;;;;;;;;15.11;93.84;101269.47;5018272;28;1297;-77
2023/05/09 08:03:22;;;;;;;;;;;;;;;15.10;93.36;101262.59;5021226;28;1310;-77
2023/05/09 08:05:48;;;;;;;;;;;;;;;15.11;93.96;101260.81;5021441;28;1157;-77
2023/05/09 08:08:13;;;;;;;;;;;;;;;15.11;93.86;101266.03;5012028;28;1377;-77
2023/05/09 08:10:38;;;;;;;;;;;;;;;15.11;93.97;101263.41;5023925;28;1236;-77
2023/05/09 08:13:04;;;;;;;;;;;;;;;15.11;93.88;101253.78;5016260;28;1318;-78
2023/05/09 08:15:30;;;;;;;;;;;;;;;15.08;93.76;101250.63;5019788;28;1971;-77
2023/05/09 08:17:55;;;;;;;;;;;;;;;15.04;93.62;101251.91;5020085;28;1209;-77
2023/05/09 08:20:20;;;;;;;;;;;;;;;15.02;94.06;101253.81;5017388;28;1184;-77
2023/05/09 08:22:45;;;;;;;;;;;;;;;15.03;93.96;101248.47;5020519;28;1189;-77
2023/05/09 08:25:12;;;;;;;;;;;;;;;15.02;94.00;101249.41;5018251;28;1176;-77
2023/05/09 08:27:37;;;;;;;;;;;;;;;15.00;94.33;101245.31;5025063;28;1348;-77
2023/05/09 08:30:03;;;;;;;;;;;;;;;14.99;94.35;101248.91;5019026;28;1026;-78
2023/05/09 08:32:28;;;;;;;;;;;;;;;15.00;94.77;101240.09;5020440;28;1267;-77
2023/05/09 08:34:53;;;;;;;;;;;;;;;15.01;94.96;101234.72;5023080;28;1264;-77
2023/05/09 08:37:18;;;;;;;;;;;;;;;15.03;94.59;101234.59;5027084;28;1886;-77
2023/05/09 08:39:44;;;;;;;;;;;;;;;15.00;95.17;101229.63;5020857;28;1376;-77
2023/05/09 08:42:09;;;;;;;;;;;;;;;14.99;95.31;101228.00;5029053;28;977;-77
2023/05/09 08:44:35;;;;;;;;;;;;;;;15.00;95.54;101232.25;5037723;28;1591;-77
2023/05/09 08:47:01;;;;;;;;;;;;;;;14.96;95.79;101218.66;5024194;28;1357;-77
2023/05/09 08:49:27;;;;;;;;;;;;;;;15.01;95.61;101226.06;5021981;28;1284;-77
2023/05/09 08:51:53;;;;;;;;;;;;;;;14.99;96.04;101213.16;5020754;28;1436;-77
2023/05/09 08:54:18;;;;;;;;;;;;;;;15.00;95.80;101219.19;5021160;28;1237;-77
2023/05/09 08:56:43;;;;;;;;;;;;;;;14.99;95.53;101213.16;5021208;28;1963;-77
2023/05/09 08:59:08;;;;;;;;;;;;;;;14.98;95.96;101221.13;5020299;28;1323;-76
2023/05/09 09:01:34;;;;;;;;;;;;;;;14.98;95.96;101221.13;5017959;28;1764;-77
2023/05/09 09:04:00;;;;;;;;;;;;;;;15.00;96.28;101213.97;5031677;28;1238;-76
2023/05/09 09:06:27;;;;;;;;;;;;;;;15.02;96.42;101217.25;5023771;28;1145;-77
2023/05/09 09:08:53;;;;;;;;;;;;;;;14.94;96.06;101210.16;5023236;28;1203;-77
2023/05/09 09:11:21;;;;;;;;;;;;;;;14.91;nan;101209.59;5019404;28;1265;-76
2023/05/09 09:13:48;;;;;;;;;;;;;;;14.86;96.34;101208.25;5025719;28;1271;-77
2023/05/09 09:16:18;;;;;;;;;;;;;;;14.81;95.96;101205.25;5021910;28;1903;-77
2023/05/09 09:18:43;;;;;;;;;;;;;;;14.83;96.55;101203.31;5016713;28;1597;-77
2023/05/09 09:21:10;;;;;;;;;;;;;;;14.86;96.54;101202.22;5023655;28;1322;-77
2023/05/09 09:23:37;;;;;;;;;;;;;;;14.85;96.70;101201.41;5023869;28;1511;-77
2023/05/09 09:26:03;;;;;;;;;;;;;;;14.83;96.86;101198.09;5030277;28;1510;-77
2023/05/09 09:28:29;;;;;;;;;;;;;;;14.82;96.57;101196.44;5016274;28;1188;-77
2023/05/09 09:30:54;;;;;;;;;;;;;;;14.78;96.47;101189.84;5022162;28;1133;-77
2023/05/09 09:33:20;;;;;;;;;;;;;;;14.77;96.62;101192.63;5018796;28;1334;-78
2023/05/09 09:35:49;;;;;;;;;;;;;;;14.76;96.94;101186.56;5024714;28;1893;-77
2023/05/09 09:38:15;;;;;;;;;;;;;;;14.76;97.05;101194.41;5025186;28;1082;-77
2023/05/09 09:40:47;;;;;;;;;;;;;;;14.78;96.97;101187.25;5027785;28;1023;-77
2023/05/09 09:43:13;;;;;;;;;;;;;;;14.83;97.20;101186.81;5028697;28;1104;-77
2023/05/09 09:45:40;;;;;;;;;;;;;;;14.86;97.73;101182.16;5025129;28;1137;-77
2023/05/09 09:48:06;;;;;;;;;;;;;;;14.90;97.12;101181.84;5021564;28;1093;-78
2023/05/09 09:50:31;;;;;;;;;;;;;;;14.83;97.27;101182.41;5025819;28;1328;-78
2023/05/09 09:52:56;;;;;;;;;;;;;;;14.80;97.32;101182.72;5021480;28;1276;-77
2023/05/09 09:55:23;;;;;;;;;;;;;;;14.77;97.63;101177.78;5044411;28;1950;-77
2023/05/09 09:57:48;;;;;;;;;;;;;;;14.75;97.34;101178.91;5039513;28;1074;-77
2023/05/09 10:00:15;;;;;;;;;;;;;;;14.73;97.42;101181.63;5050550;28;1070;-77
2023/05/09 10:02:54;;;;;;;;;;;;;;;14.70;97.71;101176.72;5045135;28;1082;-79
2023/05/09 10:05:19;;;;;;;;;;;;;;;14.68;97.45;101173.44;5050538;28;1145;-77
2023/05/09 10:07:45;;;;;;;;;;;;;;;14.68;98.23;101167.34;5039120;28;1248;-77
2023/05/09 10:10:10;;;;;;;;;;;;;;;14.68;98.14;101169.97;5044869;28;1192;-77
2023/05/09 10:12:36;;;;;;;;;;;;;;;14.68;98.23;101165.59;5052650;28;1436;-78
2023/05/09 10:15:21;;;;;;;;;;;;;;;14.68;98.10;101172.56;5032778;28;1338;-79
2023/05/09 10:17:47;;;;;;;;;;;;;;;14.65;98.27;101168.47;5018368;28;1224;-80
2023/05/09 10:20:12;;;;;;;;;;;;;;;14.61;98.21;101164.50;5031080;28;1077;-80
2023/05/09 10:22:38;;;;;;;;;;;;;;;14.51;97.80;101168.94;5020087;28;1251;-80
2023/05/09 10:25:13;;;;;;;;;;;;;;;14.42;97.81;101156.72;5031370;28;1113;-77
2023/05/09 10:27:40;;;;;;;;;;;;;;;14.34;97.92;101166.09;5051619;28;1215;-78
2023/05/09 10:30:32;;;;;;;;;;;;;;;14.28;97.99;101161.44;5043023;28;1193;-78
2023/05/09 10:33:01;;;;;;;;;;;;;;;14.22;98.12;101156.78;5043742;28;1396;-79
2023/05/09 10:35:29;;;;;;;;;;;;;;;14.22;98.46;101151.56;5044761;28;1941;-80
2023/05/09 10:37:56;;;;;;;;;;;;;;;14.22;98.74;101146.34;5016280;28;1273;-80
2023/05/09 10:40:21;;;;;;;;;;;;;;;14.23;98.54;101137.53;5020656;28;1684;-80
2023/05/09 10:42:46;;;;;;;;;;;;;;;14.24;98.68;101139.19;5023529;28;1208;-80
2023/05/09 10:45:12;;;;;;;;;;;;;;;14.25;98.67;101133.00;5016827;28;1133;-80
2023/05/09 10:47:38;;;;;;;;;;;;;;;14.28;98.86;101130.13;5018925;28;1693;-80
2023/05/09 10:50:06;;;;;;;;;;;;;;;14.30;99.71;101122.13;5018498;28;1311;-80
2023/05/09 10:52:32;;;;;;;;;;;;;;;14.29;99.89;101121.31;5022951;28;950;-79
2023/05/09 10:55:03;;;;;;;;;;;;;;;14.25;99.08;101119.13;5017948;28;1236;-80
2023/05/09 10:57:29;;;;;;;;;;;;;;;14.23;99.39;101114.06;5017272;28;1969;-79
2023/05/09 10:59:55;;;;;;;;;;;;;;;14.25;99.43;101116.53;5019515;28;1087;-80
2023/05/09 11:02:21;;;;;;;;;;;;;;;14.24;99.71;101118.31;5018713;28;926;-80
2023/05/09 11:04:46;;;;;;;;;;;;;;;14.23;99.41;101115.84;5019144;28;1192;-80
2023/05/09 11:07:22;;;;;;;;;;;;;;;14.23;99.98;101108.84;5014694;28;1206;-79
2023/05/09 11:10:07;;;;;;;;;;;;;;;14.25;100.00;101109.50;5016688;28;1295;-80
2023/05/09 11:12:32;;;;;;;;;;;;;;;14.22;100.00;101103.75;5014514;28;1253;-79
2023/05/09 11:15:03;;;;;;;;;;;;;;;14.18;100.00;101098.00;5020732;28;2015;-79
2023/05/09 11:17:30;;;;;;;;;;;;;;;14.20;100.00;101101.28;5017351;28;1922;-79
2023/05/09 11:19:58;;;;;;;;;;;;;;;14.22;100.00;101099.38;5019037;28;1252;-78
2023/05/09 11:22:26;;;;;;;;;;;;;;;14.21;100.00;101087.28;5024513;28;1042;-79
2023/05/09 11:25:03;;;;;;;;;;;;;;;14.23;100.00;101090.59;5020937;28;1066;-79
2023/05/09 11:27:33;;;;;;;;;;;;;;;14.23;100.00;101085.38;5032431;28;1322;-79
2023/05/09 11:30:03;;;;;;;;;;;;;;;14.15;100.00;101077.41;5011728;28;1105;-79
2023/05/09 11:32:33;;;;;;;;;;;;;;;14.16;100.00;101089.47;5018951;28;1973;-79
2023/05/09 11:35:08;;;;;;;;;;;;;;;14.13;100.00;101084.56;5015569;28;1159;-79
2023/05/09 11:37:38;;;;;;;;;;;;;;;14.13;100.00;101073.31;5014918;28;1985;-78
2023/05/09 11:40:03;;;;;;;;;;;;;;;14.15;100.00;101072.19;5012216;28;1622;-79
2023/05/09 11:42:29;;;;;;;;;;;;;;;14.17;100.00;101072.06;5016850;28;1116;-79
2023/05/09 11:44:55;;;;;;;;;;;;;;;14.15;100.00;101069.59;5025737;28;1092;-79
2023/05/09 11:47:20;;;;;;;;;;;;;;;14.13;100.00;101063.69;5019358;28;1615;-79
2023/05/09 11:49:46;;;;;;;;;;;;;;;14.13;100.00;101058.47;5024695;28;1570;-79
2023/05/09 11:52:12;;;;;;;;;;;;;;;14.12;100.00;101061.25;5022693;28;1312;-79
2023/05/09 11:54:37;;;;;;;;;;;;;;;14.11;100.00;101055.22;5021745;28;1090;-78
2023/05/09 11:57:03;;;;;;;;;;;;;;;14.08;100.00;101055.47;5024760;28;2340;-79
2023/05/09 11:59:28;;;;;;;;;;;;;;;14.08;100.00;101050.25;5019150;28;1097;-78
2023/05/09 12:01:54;;;;;;;;;;;;;;;14.09;100.00;101057.13;5017700;28;1252;-78
2023/05/09 12:04:19;;;;;;;;;;;;;;;14.13;100.00;101042.84;5023648;28;1204;-79
2023/05/09 12:06:50;;;;;;;;;;;;;;;14.15;100.00;101040.88;5028935;28;1162;-78
2023/05/09 12:09:15;;;;;;;;;;;;;;;14.18;100.00;101035.41;5026526;28;1100;-79
2023/05/09 12:11:47;;;;;;;;;;;;;;;14.20;100.00;101041.28;5029102;28;1064;-79
2023/05/09 12:14:25;;;;;;;;;;;;;;;14.22;100.00;101046.34;5019879;28;1526;-78
2023/05/09 12:16:50;;;;;;;;;;;;;;;14.24;100.00;101040.03;5017388;28;1894;-79
2023/05/09 12:19:17;;;;;;;;;;;;;;;14.26;100.00;101038.09;5022198;28;1252;-79
2023/05/09 12:21:42;;;;;;;;;;;;;;;14.25;100.00;101031.25;5024208;28;1018;-79
2023/05/09 12:24:07;;;;;;;;;;;;;;;14.26;100.00;101027.66;5024417;28;1177;-78
2023/05/09 12:26:32;;;;;;;;;;;;;;;14.24;100.00;101013.97;5023890;28;1111;-80
2023/05/09 12:28:58;;;;;;;;;;;;;;;14.21;100.00;101019.44;5020742;28;986;-78
2023/05/09 12:31:23;;;;;;;;;;;;;;;14.21;100.00;101022.06;5026512;28;1117;-79
2023/05/09 12:33:48;;;;;;;;;;;;;;;14.22;100.00;101020.25;5020999;28;1346;-79
2023/05/09 12:36:15;;;;;;;;;;;;;;;14.22;100.00;101018.50;5023003;28;1891;-79
2023/05/09 12:38:50;;;;;;;;;;;;;;;14.22;100.00;101013.28;5018662;28;1213;-78
2023/05/09 12:41:17;;;;;;;;;;;;;;;14.25;100.00;101010.38;5039528;28;1247;-78